Etusivu
METAR-TAF:

METAR-TAF

Lentoasemat :

Makkovik, Newfoundland ja Labrador, Kanada

Leveyspiiri: 55-05N, Pituuspiiri: 059-11W, korkeus merenpinnasta: 71 m

Tämänhetkinen sää

Tämä raportti tehtiin 13 tuntia ja 11 minuuttia sitten, kello 20.00 UTC
Tuuli 15 kn lounaasta
Lämpötila 6°C
Kosteus 70%
Ilmanpaine 1004 hPa
Näkyvyys: 24.1 km
Hajonneita pilviä 2200 ft:n korkeudessa

METAR: CYFT 212000Z 23015KT 15SM BKN022 06/01 A2966 RMK SC7 LAST STFD OBS/NEXT220900Z SLP047

Aika: 06:11 (09:11 UTC)


TAF: puuttuu

Säähavainnot ja -ennusteet yli 4000 lentoasemalta (METAR- ja TAF-raportit).

Käytössä olevat sääasemat on merkitty karttaan keltaisilla ja punaisilla pisteillä.

Aseta hiiri pisteen päälle nähdäksesi sääaseman nimen.

Klikkaa sitten nähdäksesi säähavainnot ja -ennusteet.

Kartan vaihtaminen: klikkaa mustalla rastilla varustettuja vihreitä pisteitä, niin voit zoomata sisään; viivalla varustettua vihreää pistettä, niin voit zoomata ulos tai vihreitä nuolia, niin pääset viereisille kartoille.


METAR-TAF: